Terminal Aerodrome Forecast
Issued by NWS Sterling, VA

Current Version | Previous Version | Text Only | Print | Product List | Glossary Off
Versions: 1 2 3 4 5 6 7 8 9 10 11 12 13 14 15 16 17 18 19 20 21 22 23 24 25

000
FTUS41 KLWX 282000 AAA
TAFDCA
TAF AMD
KDCA 282057Z 2821/2918 19010KT P6SM SCT250
     FM291100 VRB03KT P6SM BKN200
     FM291500 30007KT P6SM -SHRA BKN030
     FM291600 30008KT P6SM BKN040=

USA.gov is the U.S. government's official web portal to all federal, state and local government web resources and services.